createdAt,value
2022-11-22T00:00:51.756Z,4.00
2022-11-22T00:03:18.589Z,3.03
2022-11-22T00:05:45.289Z,3.63
2022-11-22T00:08:12.075Z,3.97
2022-11-22T00:10:38.997Z,4.50
2022-11-22T00:13:05.737Z,3.27
2022-11-22T00:15:32.502Z,3.43
2022-11-22T00:17:59.354Z,2.93
2022-11-22T00:20:26.471Z,4.00
2022-11-22T00:22:53.255Z,3.20
2022-11-22T00:25:20.024Z,4.43
2022-11-22T00:27:46.780Z,4.27
2022-11-22T00:30:15.741Z,3.60
2022-11-22T00:32:42.811Z,2.77
2022-11-22T00:35:11.262Z,3.40
2022-11-22T00:37:38.014Z,3.07
2022-11-22T00:40:07.900Z,3.07
2022-11-22T00:42:34.540Z,3.10
2022-11-22T00:45:03.572Z,2.67
2022-11-22T00:47:32.702Z,3.60
2022-11-22T00:49:59.375Z,2.70
2022-11-22T00:52:28.205Z,2.93
2022-11-22T00:54:55.346Z,3.37
2022-11-22T00:57:24.542Z,2.65
2022-11-22T00:59:53.659Z,2.30
2022-11-22T01:02:22.854Z,2.83
2022-11-22T01:04:51.713Z,2.63
2022-11-22T01:07:18.466Z,3.53
2022-11-22T01:09:47.752Z,2.70
2022-11-22T01:12:14.387Z,1.80
2022-11-22T01:14:41.122Z,2.33
2022-11-22T01:17:10.099Z,2.23
2022-11-22T01:19:36.886Z,3.87
2022-11-22T01:22:05.673Z,3.00
2022-11-22T01:24:32.314Z,2.93
2022-11-22T01:26:58.983Z,2.90
2022-11-22T01:29:32.875Z,2.43
2022-11-22T01:31:59.657Z,2.37
2022-11-22T01:34:28.627Z,2.38
2022-11-22T01:36:55.297Z,2.30
2022-11-22T01:39:24.602Z,1.97
2022-11-22T01:41:51.280Z,2.00
2022-11-22T01:44:27.512Z,3.80
2022-11-22T01:46:56.407Z,1.90
2022-11-22T01:49:35.807Z,2.03
2022-11-22T01:52:06.946Z,1.87
2022-11-22T01:54:42.793Z,3.37
2022-11-22T01:57:15.175Z,1.83
2022-11-22T01:59:49.785Z,2.30
2022-11-22T02:02:16.496Z,1.70
2022-11-22T02:04:46.670Z,1.93
2022-11-22T02:07:45.993Z,2.13
2022-11-22T02:10:14.418Z,2.33
2022-11-22T02:12:43.933Z,1.90
2022-11-22T02:15:11.757Z,2.00
2022-11-22T02:17:40.925Z,2.30
2022-11-22T02:20:08.506Z,2.87
2022-11-22T02:22:43.911Z,1.50
2022-11-22T02:25:36.446Z,3.13
2022-11-22T02:28:08.679Z,2.08
2022-11-22T02:30:41.859Z,2.20
2022-11-22T02:33:11.046Z,2.13
2022-11-22T02:35:37.745Z,1.53
2022-11-22T02:38:18.044Z,2.07
2022-11-22T02:40:53.292Z,2.03
2022-11-22T02:43:42.035Z,1.60
2022-11-22T02:46:20.582Z,2.20
2022-11-22T02:48:48.001Z,1.58
2022-11-22T02:51:17.130Z,2.53
2022-11-22T02:53:44.325Z,1.67
2022-11-22T02:56:13.415Z,1.40
2022-11-22T02:58:40.077Z,1.33
2022-11-22T03:01:09.056Z,1.90
2022-11-22T03:03:35.926Z,3.23
2022-11-22T03:06:02.657Z,1.40
2022-11-22T03:08:31.861Z,1.77
2022-11-22T03:11:01.192Z,1.43
2022-11-22T03:13:30.102Z,1.43
2022-11-22T03:15:56.727Z,1.37
2022-11-22T03:18:23.483Z,2.70
2022-11-22T03:20:52.474Z,1.63
2022-11-22T03:23:23.880Z,1.67
2022-11-22T03:25:50.574Z,1.30
2022-11-22T03:28:17.251Z,1.40
2022-11-22T03:30:46.261Z,1.30
2022-11-22T03:33:15.478Z,1.63
2022-11-22T03:35:46.990Z,1.43
2022-11-22T03:38:13.646Z,1.00
2022-11-22T03:40:45.516Z,1.00
2022-11-22T03:43:12.232Z,1.20
2022-11-22T03:45:45.728Z,1.53
2022-11-22T03:48:15.048Z,0.77
2022-11-22T03:50:47.394Z,3.03
2022-11-22T03:53:16.812Z,0.97
2022-11-22T03:55:45.658Z,1.93
2022-11-22T03:58:12.275Z,1.47
2022-11-22T04:00:38.951Z,1.70
2022-11-22T04:03:07.819Z,1.83
2022-11-22T04:05:34.535Z,1.93
2022-11-22T04:08:03.753Z,1.10
2022-11-22T04:10:30.429Z,1.03
2022-11-22T04:12:59.596Z,1.43
2022-11-22T04:15:26.952Z,1.10
2022-11-22T04:17:53.597Z,1.27
2022-11-22T04:20:47.246Z,1.00
2022-11-22T04:23:15.214Z,0.77
2022-11-22T04:25:44.152Z,0.80
2022-11-22T04:28:11.595Z,0.67
2022-11-22T04:31:00.343Z,1.50
2022-11-22T04:33:27.422Z,1.10
2022-11-22T04:35:56.303Z,1.20
2022-11-22T04:38:23.648Z,0.67
2022-11-22T04:40:52.729Z,1.07
2022-11-22T04:43:41.526Z,0.80
2022-11-22T04:46:08.599Z,0.87
2022-11-22T04:48:35.897Z,0.73
2022-11-22T04:51:22.098Z,0.97
2022-11-22T04:53:48.781Z,1.10
2022-11-22T04:56:15.590Z,0.63
2022-11-22T04:58:44.474Z,1.17
2022-11-22T05:01:16.065Z,0.70
2022-11-22T05:03:42.763Z,1.23
2022-11-22T05:06:16.108Z,1.07
2022-11-22T05:08:42.755Z,1.60
2022-11-22T05:11:11.848Z,0.80
2022-11-22T05:13:40.514Z,1.23
2022-11-22T05:16:10.230Z,1.00
2022-11-22T05:18:41.512Z,0.53
2022-11-22T05:21:10.815Z,1.17
2022-11-22T05:23:55.756Z,0.80
2022-11-22T05:26:25.201Z,0.60
2022-11-22T05:28:54.565Z,0.80
2022-11-22T05:31:23.625Z,0.73
2022-11-22T05:33:56.703Z,1.43
2022-11-22T05:36:24.375Z,0.70
2022-11-22T05:38:53.707Z,1.30
2022-11-22T05:41:20.513Z,0.70
2022-11-22T05:43:52.370Z,1.00
2022-11-22T05:46:24.697Z,1.00
2022-11-22T05:48:52.973Z,1.60
2022-11-22T05:51:22.293Z,2.33
2022-11-22T05:53:51.296Z,0.90
2022-11-22T05:56:20.820Z,2.63
2022-11-22T05:58:47.692Z,1.35
2022-11-22T06:01:22.038Z,0.70
2022-11-22T06:03:49.808Z,0.80
2022-11-22T06:06:16.945Z,2.73
2022-11-22T06:08:48.069Z,2.30
2022-11-22T06:11:25.242Z,0.90
2022-11-22T06:13:58.350Z,1.73
2022-11-22T06:16:26.628Z,1.85
2022-11-22T06:18:54.055Z,1.13
2022-11-22T06:21:24.864Z,1.60
2022-11-22T06:23:55.064Z,1.97
2022-11-22T06:26:22.784Z,0.80
2022-11-22T06:28:50.034Z,1.50
2022-11-22T06:31:22.856Z,1.63
2022-11-22T06:33:50.337Z,3.53
2022-11-22T06:36:19.563Z,0.90
2022-11-22T06:38:46.841Z,1.77
2022-11-22T06:41:37.029Z,1.07
2022-11-22T06:44:10.996Z,2.47
2022-11-22T06:46:38.082Z,1.70
2022-11-22T06:49:04.845Z,1.60
2022-11-22T06:51:32.405Z,1.57
2022-11-22T06:53:59.301Z,2.17
2022-11-22T06:56:25.967Z,3.63
2022-11-22T06:58:53.363Z,2.27
2022-11-22T07:01:28.268Z,2.57
2022-11-22T07:03:58.159Z,2.83
2022-11-22T07:06:31.610Z,2.30
2022-11-22T07:09:02.194Z,5.17
2022-11-22T07:11:30.932Z,3.63
2022-11-22T07:14:07.099Z,3.83
2022-11-22T07:16:36.689Z,4.73
2022-11-22T07:19:03.791Z,3.75
2022-11-22T07:21:35.423Z,2.60
2022-11-22T07:24:03.761Z,4.03
2022-11-22T07:26:30.430Z,2.83
2022-11-22T07:28:59.394Z,3.73
2022-11-22T07:31:26.207Z,3.77
2022-11-22T07:33:52.919Z,2.83
2022-11-22T07:36:21.397Z,2.50
2022-11-22T07:38:49.143Z,1.83
2022-11-22T07:41:19.458Z,5.93
2022-11-22T07:43:48.917Z,5.20
2022-11-22T07:46:31.143Z,3.00
2022-11-22T07:49:01.922Z,3.83
2022-11-22T07:51:29.217Z,5.60
2022-11-22T07:53:58.254Z,5.50
2022-11-22T07:56:25.530Z,5.27
2022-11-22T07:58:52.301Z,7.03
2022-11-22T08:01:23.846Z,7.60
2022-11-22T08:03:53.038Z,6.90
2022-11-22T08:06:19.666Z,9.03
2022-11-22T08:08:46.319Z,6.93
2022-11-22T08:11:13.109Z,6.40
2022-11-22T08:13:40.396Z,7.33
2022-11-22T08:16:12.470Z,5.43
2022-11-22T08:18:41.920Z,4.30
2022-11-22T08:21:14.145Z,6.53
2022-11-22T08:23:41.707Z,4.53
2022-11-22T08:26:13.458Z,4.97
2022-11-22T08:28:41.618Z,5.30
2022-11-22T08:31:13.725Z,4.90
2022-11-22T08:33:40.954Z,3.43
2022-11-22T08:36:08.146Z,5.40
2022-11-22T08:38:34.996Z,4.72
2022-11-22T08:41:01.926Z,4.27
2022-11-22T08:43:28.612Z,4.40
2022-11-22T08:46:02.085Z,3.63
2022-11-22T08:48:37.536Z,3.73
2022-11-22T08:51:08.649Z,6.43
2022-11-22T08:53:37.912Z,4.17
2022-11-22T08:56:09.702Z,5.03
2022-11-22T08:58:37.135Z,5.90
2022-11-22T09:01:09.508Z,4.33
2022-11-22T09:03:38.522Z,6.30
2022-11-22T09:09:09.125Z,5.23
2022-11-22T09:11:43.571Z,4.37
2022-11-22T09:14:15.164Z,4.33
2022-11-22T09:16:41.806Z,5.63
2022-11-22T09:19:08.423Z,4.33
2022-11-22T09:21:35.202Z,6.67
2022-11-22T09:24:04.443Z,6.27
2022-11-22T09:26:31.176Z,5.40
2022-11-22T09:29:01.096Z,4.70
2022-11-22T09:31:34.161Z,5.57
2022-11-22T09:34:00.866Z,5.20
2022-11-22T09:36:27.600Z,6.60
2022-11-22T09:38:56.928Z,5.07
2022-11-22T09:41:39.328Z,5.70
2022-11-22T09:44:11.768Z,5.73
2022-11-22T09:47:05.775Z,5.40
2022-11-22T09:49:58.435Z,5.73
2022-11-22T09:52:32.330Z,4.75
2022-11-22T09:55:24.175Z,4.17
2022-11-22T09:58:11.504Z,4.00
2022-11-22T10:00:39.429Z,4.87
2022-11-22T10:03:16.575Z,4.70
2022-11-22T10:05:52.326Z,7.20
2022-11-22T10:08:45.963Z,5.83
2022-11-22T10:11:42.955Z,5.32
2022-11-22T10:14:34.597Z,6.17
2022-11-22T10:17:30.443Z,4.57
2022-11-22T10:20:05.934Z,5.07
2022-11-22T10:22:35.489Z,4.53
2022-11-22T10:25:12.931Z,4.00
2022-11-22T10:27:41.452Z,5.23
2022-11-22T10:30:16.909Z,5.20
2022-11-22T10:33:09.610Z,4.63
2022-11-22T10:35:55.129Z,5.37
2022-11-22T10:38:37.895Z,4.63
2022-11-22T10:41:27.018Z,4.20
2022-11-22T10:44:13.915Z,4.67
2022-11-22T10:46:56.724Z,4.38
2022-11-22T10:49:55.308Z,4.33
2022-11-22T10:52:27.379Z,4.93
2022-11-22T10:55:22.241Z,3.67
2022-11-22T10:58:14.869Z,3.40
2022-11-22T11:00:49.281Z,4.37
2022-11-22T11:03:25.136Z,2.63
2022-11-22T11:06:22.629Z,4.00
2022-11-22T11:09:54.994Z,4.70
2022-11-22T11:11:52.082Z,4.13
2022-11-22T11:14:18.682Z,4.07
2022-11-22T11:16:46.304Z,3.07
2022-11-22T11:19:26.790Z,4.23
2022-11-22T11:22:00.538Z,3.40
2022-11-22T11:24:32.089Z,7.20
2022-11-22T11:27:00.349Z,3.97
2022-11-22T11:29:38.170Z,7.23
2022-11-22T11:32:10.837Z,5.63
2022-11-22T11:34:40.610Z,5.43
2022-11-22T11:37:18.557Z,6.60
2022-11-22T11:39:47.365Z,6.37
2022-11-22T11:42:32.326Z,3.20
2022-11-22T11:45:25.024Z,6.37
2022-11-22T11:47:51.830Z,3.03
2022-11-22T11:50:27.748Z,2.60
2022-11-22T11:52:57.011Z,2.73
2022-11-22T11:55:24.995Z,4.43
2022-11-22T11:57:53.317Z,5.33
2022-11-22T12:00:28.212Z,3.43
2022-11-22T12:03:02.809Z,2.53
2022-11-22T12:05:32.156Z,4.63
2022-11-22T12:08:00.129Z,3.70
2022-11-22T12:10:30.350Z,3.90
2022-11-22T12:13:22.282Z,3.90
2022-11-22T12:15:57.701Z,3.93
2022-11-22T12:18:39.425Z,4.63
2022-11-22T12:21:22.768Z,2.43
2022-11-22T12:24:48.392Z,4.90
2022-11-22T12:27:17.152Z,4.40
2022-11-22T12:29:49.583Z,2.63
2022-11-22T12:32:36.870Z,2.50
2022-11-22T12:35:09.195Z,4.00
2022-11-22T12:37:51.803Z,3.27
2022-11-22T12:40:26.959Z,1.77
2022-11-22T12:43:02.577Z,3.00
2022-11-22T12:45:42.281Z,3.13
2022-11-22T12:48:18.366Z,3.00
2022-11-22T12:50:53.729Z,2.97
2022-11-22T12:53:29.056Z,3.17
2022-11-22T12:56:04.248Z,3.57
2022-11-22T12:58:42.820Z,2.00
2022-11-22T13:01:15.540Z,2.70
2022-11-22T13:03:54.299Z,2.53
2022-11-22T13:06:28.347Z,5.67
2022-11-22T13:09:05.026Z,3.63
2022-11-22T13:11:40.271Z,2.83
2022-11-22T13:14:20.845Z,2.17
2022-11-22T13:16:50.815Z,2.77
2022-11-22T13:19:21.425Z,4.30
2022-11-22T13:22:03.000Z,2.17
2022-11-22T13:24:41.173Z,3.17
2022-11-22T13:27:07.759Z,3.43
2022-11-22T13:29:36.315Z,4.10
2022-11-22T13:32:04.858Z,3.03
2022-11-22T13:34:37.008Z,4.13
2022-11-22T13:37:17.226Z,2.03
2022-11-22T13:39:47.353Z,5.00
2022-11-22T13:42:22.251Z,4.03
2022-11-22T13:45:22.465Z,1.63
2022-11-22T13:47:49.641Z,1.33
2022-11-22T13:50:44.511Z,1.63
2022-11-22T13:53:20.116Z,1.73
2022-11-22T13:55:49.268Z,4.90
2022-11-22T13:58:38.653Z,3.87
2022-11-22T14:01:30.846Z,6.90
2022-11-22T14:04:15.889Z,10.10
2022-11-22T14:07:02.909Z,13.50
2022-11-22T14:09:45.852Z,13.27
2022-11-22T14:12:39.892Z,49.27
2022-11-22T14:15:13.189Z,33.70
2022-11-22T14:17:50.734Z,61.30
2022-11-22T14:20:20.203Z,47.57
2022-11-22T14:22:55.903Z,49.83
2022-11-22T14:25:46.413Z,68.78
2022-11-22T14:28:21.864Z,71.23
2022-11-22T14:30:55.136Z,79.40
2022-11-22T14:33:24.433Z,67.67
2022-11-22T14:36:06.419Z,61.83
2022-11-22T14:38:35.573Z,63.87
2022-11-22T14:41:27.143Z,58.42
2022-11-22T14:44:08.204Z,55.77
2022-11-22T14:46:59.327Z,47.20
2022-11-22T14:49:34.488Z,44.03
2022-11-22T14:52:02.347Z,44.43
2022-11-22T14:54:40.397Z,37.20
2022-11-22T14:57:09.505Z,36.47
2022-11-22T15:00:09.069Z,34.53
2022-11-22T15:03:00.410Z,28.90
2022-11-22T15:09:10.444Z,25.80
2022-11-22T15:09:13.693Z,26.50
2022-11-22T15:12:16.619Z,23.67
2022-11-22T15:14:56.412Z,23.15
2022-11-22T15:58:05.682Z,9.83
2022-11-22T16:00:32.757Z,9.83
2022-11-22T16:03:06.711Z,9.43
2022-11-22T16:06:08.849Z,9.63
2022-11-22T16:08:26.430Z,8.97
2022-11-22T16:10:58.650Z,9.27
2022-11-22T16:13:28.034Z,7.47
2022-11-22T16:16:12.937Z,8.53
2022-11-22T16:18:40.646Z,7.40
2022-11-22T16:21:11.043Z,8.37
2022-11-22T16:23:39.181Z,7.80
2022-11-22T16:26:21.821Z,7.60
2022-11-22T16:28:54.414Z,8.37
2022-11-22T16:31:23.886Z,8.70
2022-11-22T16:33:52.197Z,6.80
2022-11-22T16:36:22.788Z,6.03
2022-11-22T16:38:51.777Z,8.45
2022-11-22T16:41:22.116Z,5.90
2022-11-22T16:43:53.854Z,6.97
2022-11-22T16:46:21.488Z,6.33
2022-11-22T16:48:48.324Z,5.93
2022-11-22T16:51:28.338Z,4.80
2022-11-22T16:53:58.973Z,9.18
2022-11-22T16:56:30.017Z,9.30
2022-11-22T16:58:57.772Z,6.83
2022-11-22T17:01:26.883Z,6.20
2022-11-22T17:03:57.383Z,8.20
2022-11-22T17:06:26.482Z,4.97
2022-11-22T17:08:57.671Z,5.37
2022-11-22T17:11:34.520Z,6.47
2022-11-22T17:14:01.194Z,5.97
2022-11-22T17:16:27.906Z,4.93
2022-11-22T17:18:54.601Z,5.23
2022-11-22T17:21:25.547Z,4.73
2022-11-22T17:23:57.887Z,4.63
2022-11-22T17:26:27.290Z,5.30
2022-11-22T17:28:58.636Z,5.83
2022-11-22T17:31:27.497Z,5.10
2022-11-22T17:33:58.961Z,5.07
2022-11-22T17:36:27.795Z,3.83
2022-11-22T17:38:54.499Z,5.27
2022-11-22T17:41:23.562Z,4.27
2022-11-22T17:43:51.579Z,5.27
2022-11-22T17:46:19.466Z,4.40
2022-11-22T17:49:00.497Z,5.03
2022-11-22T17:51:28.572Z,5.07
2022-11-22T17:53:58.557Z,4.50
2022-11-22T17:56:29.927Z,4.93
2022-11-22T17:58:59.121Z,3.90
2022-11-22T18:01:26.414Z,4.07
2022-11-22T18:03:55.431Z,3.60
2022-11-22T18:06:26.587Z,3.97
2022-11-22T18:08:55.950Z,3.73
2022-11-22T18:11:24.750Z,4.23
2022-11-22T18:13:53.644Z,3.70
2022-11-22T18:16:20.991Z,5.00
2022-11-22T18:19:03.066Z,3.53
2022-11-22T18:21:32.135Z,4.10
2022-11-22T18:24:01.922Z,4.13
2022-11-22T18:26:39.311Z,3.70
2022-11-22T18:34:41.663Z,2.87
2022-11-22T18:37:08.380Z,6.20
2022-11-22T18:39:38.826Z,4.07
2022-11-22T18:42:08.635Z,3.23
2022-11-22T18:44:35.356Z,4.53
2022-11-22T18:47:04.780Z,3.13
2022-11-22T18:49:34.190Z,3.80
2022-11-22T18:52:03.218Z,4.90
2022-11-22T18:54:30.397Z,4.37
2022-11-22T18:56:59.948Z,9.60
2022-11-22T18:59:27.118Z,4.60
2022-11-22T19:01:56.037Z,5.57
2022-11-22T19:04:22.766Z,5.90
2022-11-22T19:06:49.499Z,5.40
2022-11-22T19:09:16.239Z,4.57
2022-11-22T19:11:45.152Z,8.53
2022-11-22T19:14:14.018Z,6.13
2022-11-22T19:16:40.688Z,7.17
2022-11-22T19:19:10.539Z,6.97
2022-11-22T19:21:37.147Z,6.83
2022-11-22T19:24:04.166Z,7.63
2022-11-22T19:26:30.927Z,5.20
2022-11-22T19:29:00.305Z,7.70
2022-11-22T19:31:29.565Z,5.33
2022-11-22T19:33:57.098Z,7.17
2022-11-22T19:36:32.137Z,5.43
2022-11-22T19:39:02.606Z,7.63
2022-11-22T19:41:29.321Z,4.27
2022-11-22T19:43:58.610Z,6.00
2022-11-22T19:46:25.905Z,4.43
2022-11-22T19:48:58.718Z,4.43
2022-11-22T19:51:29.415Z,4.57
2022-11-22T19:54:01.902Z,5.70
2022-11-22T19:56:33.308Z,4.93
2022-11-22T19:59:01.928Z,3.60
2022-11-22T20:01:33.457Z,3.87
2022-11-22T20:04:05.562Z,4.00
2022-11-22T20:06:35.783Z,4.17
2022-11-22T20:09:05.753Z,2.83
2022-11-22T20:11:34.950Z,2.87
2022-11-22T20:14:04.008Z,4.18
2022-11-22T20:16:33.770Z,3.77
2022-11-22T20:19:03.730Z,3.67
2022-11-22T20:21:34.582Z,4.03
2022-11-22T20:24:02.308Z,2.13
2022-11-22T20:26:30.425Z,3.07
2022-11-22T20:29:08.092Z,2.47
2022-11-22T20:31:37.023Z,2.30
2022-11-22T20:34:04.179Z,3.10
2022-11-22T20:36:33.193Z,2.10
2022-11-22T20:39:08.401Z,2.50
2022-11-22T20:41:36.963Z,3.07
2022-11-22T20:44:03.894Z,3.30
2022-11-22T20:46:36.175Z,2.37
2022-11-22T20:49:02.855Z,3.83
2022-11-22T20:51:32.362Z,1.93
2022-11-22T20:53:59.925Z,2.17
2022-11-22T20:56:28.809Z,2.17
2022-11-22T20:58:58.067Z,2.90
2022-11-22T21:01:27.338Z,2.83
2022-11-22T21:03:57.519Z,1.83
2022-11-22T21:06:32.707Z,1.73
2022-11-22T21:08:59.424Z,1.93
2022-11-22T21:11:32.050Z,1.80
2022-11-22T21:14:02.246Z,2.03
2022-11-22T21:16:32.446Z,1.63
2022-11-22T21:19:01.498Z,1.80
2022-11-22T21:21:32.030Z,1.60
2022-11-22T21:24:00.878Z,1.50
2022-11-22T21:26:28.461Z,2.67
2022-11-22T21:28:57.609Z,1.67
2022-11-22T21:31:24.503Z,2.00
2022-11-22T21:33:51.960Z,1.87
2022-11-22T21:36:19.485Z,2.40
2022-11-22T21:38:46.455Z,2.10
2022-11-22T21:44:04.812Z,2.17
2022-11-22T21:46:31.557Z,1.70
2022-11-22T21:48:58.340Z,1.80
2022-11-22T21:51:26.192Z,1.43
2022-11-22T21:53:57.578Z,1.33
2022-11-22T21:56:29.353Z,1.40
2022-11-22T21:58:59.274Z,2.93
2022-11-22T22:01:26.578Z,5.33
2022-11-22T22:03:54.021Z,1.93
2022-11-22T22:06:20.989Z,2.53
2022-11-22T22:08:47.705Z,1.30
2022-11-22T22:11:14.917Z,2.13
2022-11-22T22:13:41.843Z,1.47
2022-11-22T22:16:15.430Z,3.03
2022-11-22T22:18:47.629Z,2.47
2022-11-22T22:21:14.816Z,1.20
2022-11-22T22:23:45.003Z,1.50
2022-11-22T22:26:14.230Z,2.10
2022-11-22T22:28:41.683Z,1.33
2022-11-22T22:31:24.739Z,3.13
2022-11-22T22:33:54.125Z,3.03
2022-11-22T22:36:21.739Z,2.67
2022-11-22T22:38:51.041Z,1.43
2022-11-22T22:41:18.661Z,1.90
2022-11-22T22:43:51.713Z,1.60
2022-11-22T22:46:20.007Z,1.53
2022-11-22T22:48:48.275Z,1.53
2022-11-22T22:51:21.517Z,1.42
2022-11-22T22:53:50.496Z,1.20
2022-11-22T22:56:19.234Z,1.73
2022-11-22T22:58:46.235Z,1.23
2022-11-22T23:01:15.333Z,2.00
2022-11-22T23:03:42.211Z,1.83
2022-11-22T23:06:11.492Z,1.23
2022-11-22T23:08:39.524Z,1.40
2022-11-22T23:11:08.561Z,1.30
2022-11-22T23:13:40.424Z,1.20
2022-11-22T23:16:09.713Z,1.60
2022-11-22T23:18:42.190Z,1.53
2022-11-22T23:21:11.603Z,1.63
2022-11-22T23:23:38.712Z,1.30
2022-11-22T23:26:09.905Z,3.00
2022-11-22T23:28:36.963Z,1.17
2022-11-22T23:31:08.639Z,1.80
2022-11-22T23:33:38.057Z,1.65
2022-11-22T23:36:15.999Z,1.97
2022-11-22T23:38:45.669Z,2.97
2022-11-22T23:41:18.155Z,2.47
2022-11-22T23:43:47.094Z,2.40
2022-11-22T23:46:18.150Z,2.80
2022-11-22T23:48:53.686Z,1.73
2022-11-22T23:51:20.682Z,2.20
2022-11-22T23:53:53.514Z,1.63
2022-11-22T23:56:21.955Z,1.63
2022-11-22T23:58:49.680Z,2.80
